Terminal Aerodrome Forecast
Issued by NWS

Home | Current Version | Previous Version | Text Only | Print | Product List | Glossary On
Versions: 1 2 3 4 5 6 7 8 9 10 11 12 13 14 15 16 17 18 19 20 21 22 23 24 25 26 27 28 29
000
FTUS45 KGJT 261150 AAA
TAFDRO
TAF AMD
KDRO 261150Z 2612/2712 10005KT 5SM -RA BKN009 OVC020
     FM261900 32006KT P6SM -RA BKN020 OVC050
     FM270200 03008KT P6SM VCSH SCT030 BKN060
     FM270600 04004KT P6SM VCSH SCT020 BKN060=

USA.gov is the U.S. government's official web portal to all federal, state and local government web resources and services.